Tiempo atmosférico en la estación meteorológica de Arico, Santa Cruz de Tenerife (418 m.)



Fecha
DESCASC
Temp. máxima en grados centígrados (hora)
DESCASC
Temp. mínima en grados centígrados (hora)
DESCASC
Temp. media en grados centígrados
DESCASC
Racha de viento máxima en m/sg (hora)
DESCASC
Velocidad máxima media en intervalos de 10 minutos(hora)
DESCASC
Precipitaciones diarias en mm
DESCASC
Precipitaciones de 00:00 a 06:00 en mm
DESCASC
Precipitaciones de 06:00 a 12:00 en mm
DESCASC
Precipitaciones de 12:00 a 18:00 en mm
DESCASC
Precipitaciones de 18:00 a 24:00 en mm
DESCASC
11-08-2020 25.5 (15:50) 17.8 (05:50) 21.6 12.78 (12:20) 8.33 (14:50) 0 0 0 0 0
10-08-2020 25.8 (14:20) 18 (07:10) 21.9 11.67 (12:10) 7.22 (16:50) 0 0 0 0 0
09-08-2020 26.9 (14:10) 18.2 (07:30) 22.6 11.11 (15:50) 6.94 (15:20) 0 0 0 0 0
08-08-2020 25.9 (15:40) 17.3 (07:30) 21.6 10.56 (14:50) 6.94 (11:20) 0 0 0 0 0
07-08-2020 25.5 (16:20) 17.5 (00:00) 21.5 10.28 (13:40) 6.11 (13:50) 0 0 0 0 0
06-08-2020 26.9 (13:00) 18 (06:50) 22.4 8.33 (05:40) 5.28 (05:40) 0 0 0 0 0
05-08-2020 27.6 (15:10) 17.8 (00:00) 22.7 6.39 (15:30) 4.17 (10:30) 0 0 0 0 0
04-08-2020 27.4 (17:30) 18.6 (07:40) 23 11.67 (12:40) 7.22 (10:50) 0 0 0 0 0
03-08-2020 27 (16:30) 20.3 (23:59) 23.6 10.83 (14:20) 6.94 (13:50) 0 0 0 0 0
02-08-2020 28.5 (12:40) 18.8 (06:20) 23.6 9.17 (16:50) 5.83 (16:50) 0 0 0 0 0
01-08-2020 26.1 (15:10) 18.4 (00:00) 22.3 8.61 (13:10) 5 (12:00) 0 0 0 0 0
31-07-2020 24.7 (14:00) 17.2 (05:40) 21 10 (16:50) 6.11 (02:40) 0 0 0 0 0
30-07-2020 25.3 (14:30) 16.5 (00:00) 20.9 12.22 (19:50) 7.22 (12:50) -- 0 -- 0 0
29-07-2020 25.3 (16:20) 18 (00:00) 21.6 13.61 (12:50) 9.17 (14:20) 0 0 0 0 0
28-07-2020 25.4 (14:40) 17.8 (07:30) 21.6 11.67 (14:40) 7.5 (15:00) 0 0 0 0 0
27-07-2020 27.3 (14:50) 16.9 (00:00) 22.1 12.5 (12:30) 8.06 (12:20) 0 0 0 0 0
26-07-2020 25.3 (14:40) 17.5 (00:00) 21.4 11.94 (15:40) 7.5 (11:00) 0 0 0 0 0
25-07-2020 27.7 (16:30) 17.3 (06:00) 22.5 9.44 (18:30) 6.67 (12:20) 0 0 0 0 0
24-07-2020 26.1 (15:50) 17.2 (00:00) 21.7 10.56 (13:50) 6.94 (12:20) 0 0 0 0 0
23-07-2020 26.8 (15:00) 17.8 (00:00) 22.3 10 (13:50) 6.67 (14:10) 0 0 0 0 0
22-07-2020 24.9 (13:40) 17.4 (07:30) 21.1 14.17 (16:50) 8.06 (11:30) 0 0 0 0 0
21-07-2020 26.1 (14:30) 17.6 (00:00) 21.9 12.5 (05:50) 8.06 (12:00) 0 0 0 0 0
20-07-2020 26 (11:40) 19.2 (23:59) 22.6 11.39 (13:40) 7.5 (13:40) 0 0 0 0 0
19-07-2020 32.7 (14:00) 22.8 (00:00) 27.8 12.5 (16:30) 7.5 (15:50) 0 0 0 0 0
18-07-2020 32.8 (12:50) 23.1 (00:00) 27.9 7.78 (17:10) 5.28 (17:10) 0 0 0 0 0
17-07-2020 31.2 (14:40) 17.7 (00:00) 24.5 6.39 (14:50) 3.61 (12:10) 0 0 0 0 0
16-07-2020 26.3 (14:20) 17.6 (00:00) 21.9 6.94 (03:50) 4.44 (03:50) 0 0 0 0 0
15-07-2020 26.2 (13:50) 18.4 (23:30) 22.3 10.28 (15:20) 7.22 (16:30) 0 0 0 0 0
14-07-2020 29.9 (16:10) 16.5 (00:00) 23.2 10 (17:20) 5.83 (17:20) 0 0 0 0 0

Gráficas

Temp. máximas Temp. mínimas Temp. medias Precipitaciones Rachas de viento máximas Velocidades máximas media en intervalos de 10 minutos

Datos horarios

Fecha y hora oficial Temperatura (ºC) Velocidad del viento (km/h) Dirección del viento Racha (km/h) Dirección de racha Precipitación (mm) Presión (hPa) Tendencia (hPa) Humedad (%)
2020-08-12 23:00:00 19 17 Nordeste 35 Nordeste 0 -- -- 83
2020-08-12 22:00:00 19.5 22 Nordeste 45 Nordeste 0 -- -- 87
2020-08-12 21:00:00 19.9 25 Nordeste 39 Nordeste 0 -- -- 85
2020-08-12 20:00:00 20.7 26 Nordeste 47 Nordeste 0 -- -- 81
2020-08-12 19:00:00 22.3 24 Nordeste 44 Nordeste 0 -- -- 75
2020-08-12 18:00:00 23.2 29 Nordeste 46 Nordeste 0 -- -- 71
2020-08-12 17:00:00 24.4 24 Nordeste 46 Nordeste 0 -- -- 65
2020-08-12 16:00:00 24.5 26 Nordeste 45 Este 0 -- -- 66
2020-08-12 15:00:00 24.4 30 Nordeste 51 Nordeste 0 -- -- 68
2020-08-12 14:00:00 24.6 32 Nordeste 57 Nordeste 0 -- -- 63
2020-08-12 13:00:00 24 36 Nordeste 55 Nordeste 0 -- -- 63
2020-08-12 12:00:00 23.4 36 Nordeste 55 Nordeste 0 -- -- 68
2020-08-12 11:00:00 23.4 27 Nordeste 53 Nordeste 0 -- -- 70
2020-08-12 10:00:00 22.5 27 Nordeste 48 Nordeste 0 -- -- 73
2020-08-12 09:00:00 21 24 Nordeste 42 Nordeste 0 -- -- 74
2020-08-12 08:00:00 19.3 20 Nordeste 35 Nordeste 0 -- -- 81
2020-08-12 07:00:00 18.8 16 Nordeste 42 Nordeste 0 -- -- 78
2020-08-12 06:00:00 19 21 Nordeste 39 Nordeste 0 -- -- 86
2020-08-12 05:00:00 19.3 19 Nordeste 39 Nordeste 0 -- -- 90
2020-08-12 04:00:00 18.8 18 Nordeste 35 Nordeste 0 -- -- 84
2020-08-12 03:00:00 18.9 22 Nordeste 34 Nordeste 0 -- -- 82
2020-08-12 02:00:00 18.8 14 Nordeste 34 Nordeste 0 -- -- 81
2020-08-12 01:00:00 19.2 12 Nordeste 31 Nordeste 0 -- -- 77
2020-08-12 00:00:00 19.5 17 Nordeste 39 Nordeste 0 -- -- 83
2020-08-11 23:00:00 20.1 23 Nordeste 36 Nordeste 0 -- -- 74
2020-08-11 22:00:00 20 15 Nordeste 33 Nordeste 0 -- -- 77
2020-08-11 21:00:00 20.5 22 Nordeste 39 Nordeste 0 -- -- 74
2020-08-11 20:00:00 21.5 23 Nordeste 39 Nordeste 0 -- -- 73
2020-08-11 19:00:00 23 24 Nordeste 44 Nordeste 0 -- -- 69
2020-08-11 18:00:00 23.7 26 Nordeste 41 Nordeste 0 -- -- 67
2020-08-11 17:00:00 24.7 26 Nordeste 45 Este 0 -- -- 61
2020-08-11 16:00:00 25.1 28 Nordeste 45 Este 0 -- -- 57
2020-08-11 15:00:00 24.9 28 Nordeste 45 Nordeste 0 -- -- 64
2020-08-11 14:00:00 24.8 27 Nordeste 42 Este 0 -- -- 65
2020-08-11 13:00:00 24.3 24 Nordeste 46 Nordeste 0 -- -- 67
2020-08-11 12:00:00 23.9 27 Este 41 Este 0 -- -- 69
2020-08-11 11:00:00 23.8 22 Nordeste 42 Nordeste 0 -- -- 67
2020-08-11 10:00:00 22.6 24 Nordeste 38 Este 0 -- -- 70
2020-08-11 09:00:00 20.4 10 Nordeste 22 Nordeste 0 -- -- 80
2020-08-11 08:00:00 18.8 12 Nordeste 21 Nordeste 0 -- -- 86
2020-08-11 07:00:00 17.9 8 Norte 22 Nordeste 0 -- -- 81
2020-08-11 06:00:00 17.9 9 Norte 24 Nordeste 0 -- -- 81
2020-08-11 05:00:00 17.9 9 Norte 15 Norte 0 -- -- 79
2020-08-11 04:00:00 18.4 9 Nordeste 21 Nordeste 0 -- -- 77
2020-08-11 03:00:00 18.7 6 Norte 23 Norte 0 -- -- 77
2020-08-11 02:00:00 18.6 9 Norte 19 Nordeste 0 -- -- 77
2020-08-11 01:00:00 18.7 5 Norte 10 Nordeste 0 -- -- 75
2020-08-11 00:00:00 19.5 5 Sudoeste 12 Oeste 0 -- -- 74
2020-08-10 23:00:00 19.8 4 Sudoeste 10 Sudoeste 0 -- -- 77
2020-08-10 22:00:00 19.9 3 Sudoeste 9 Nordeste 0 -- -- 81
2020-08-10 21:00:00 20.6 6 Nordeste 22 Nordeste 0 -- -- 78
2020-08-10 20:00:00 22 14 Nordeste 28 Este 0 -- -- 71
2020-08-10 19:00:00 23.7 18 Nordeste 35 Este 0 -- -- 68
2020-08-10 18:00:00 24.4 22 Nordeste 37 Este 0 -- -- 63
2020-08-10 17:00:00 24.9 22 Nordeste 40 Nordeste 0 -- -- 62
2020-08-10 16:00:00 25.3 23 Nordeste 39 Nordeste 0 -- -- 63
2020-08-10 15:00:00 25.7 21 Este 34 Nordeste 0 -- -- 63
2020-08-10 14:00:00 25 24 Nordeste 37 Este 0 -- -- 66
2020-08-10 13:00:00 25.6 22 Nordeste 42 Este 0 -- -- 64
2020-08-10 12:00:00 24.9 24 Nordeste 38 Nordeste 0 -- -- 65
2020-08-10 11:00:00 24.6 20 Nordeste 30 Nordeste 0 -- -- 65
2020-08-10 10:00:00 23.2 17 Nordeste 32 Nordeste 0 -- -- 72
2020-08-10 09:00:00 21.6 16 Nordeste 24 Nordeste 0 -- -- 77
2020-08-10 08:00:00 18.8 8 Nordeste 21 Nordeste 0 -- -- 87
2020-08-10 07:00:00 18.2 6 Norte 14 Nordeste 0 -- -- 84
2020-08-10 06:00:00 19.1 12 Nordeste 21 Nordeste 0 -- -- 88
2020-08-10 05:00:00 19.1 15 Nordeste 31 Nordeste 0 -- -- 88
2020-08-10 04:00:00 19.3 21 Nordeste 39 Nordeste 0 -- -- 86
2020-08-10 03:00:00 19.4 19 Nordeste 32 Nordeste 0 -- -- 85
2020-08-10 02:00:00 19.5 18 Nordeste 31 Nordeste 0 -- -- 79
2020-08-10 01:00:00 19 13 Nordeste 27 Nordeste 0 -- -- 82
2020-08-10 00:00:00 19.1 4 Norte 12 Nordeste 0 -- -- 80
2020-08-09 23:00:00 19.7 0 Calma 9 Sudoeste 0 -- -- 79
2020-08-09 22:00:00 20.5 4 Sudoeste 9 Sur 0 -- -- 78
2020-08-09 21:00:00 21.4 4 Sudeste 12 Nordeste 0 -- -- 75
2020-08-09 20:00:00 23.6 6 Este 11 Este 0 -- -- 67
2020-08-09 19:00:00 25.8 6 Este 15 Este 0 -- -- 58
2020-08-09 18:00:00 25.9 9 Este 24 Este 0 -- -- 59
2020-08-09 17:00:00 26.2 12 Este 26 Este 0 -- -- 58
2020-08-09 16:00:00 25.5 19 Este 40 Nordeste 0 -- -- 63
2020-08-09 15:00:00 26.5 19 Nordeste 31 Nordeste 0 -- -- 57
2020-08-09 14:00:00 26.7 17 Nordeste 32 Este 0 -- -- 58
2020-08-09 13:00:00 26.1 16 Este 27 Este 0 -- -- 62
2020-08-09 12:00:00 25.4 16 Este 30 Este 0 -- -- 63
2020-08-09 11:00:00 25 9 Sudeste 24 Sur 0 -- -- 63
2020-08-09 10:00:00 22 15 Sudoeste 27 Sudoeste 0 -- -- 74
2020-08-09 09:00:00 20.9 13 Sur 19 Sur 0 -- -- 76
2020-08-09 08:00:00 18.6 9 Sudoeste 19 Oeste 0 -- -- 74
2020-08-09 07:00:00 18.3 12 Sudoeste 17 Sudoeste 0 -- -- 82
2020-08-09 06:00:00 18.6 5 Sudoeste 16 Sudoeste 0 -- -- 69
2020-08-09 05:00:00 18.4 7 Sudoeste 12 Noroeste 0 -- -- 72
2020-08-09 04:00:00 18.3 9 Noroeste 12 Noroeste 0 -- -- 68
2020-08-09 03:00:00 18.7 6 Noroeste 12 Norte 0 -- -- 70
2020-08-09 02:00:00 18.9 7 Oeste 10 Oeste 0 -- -- 74
2020-08-09 01:00:00 19.1 6 Oeste 14 Oeste 0 -- -- 71
2020-08-09 00:00:00 19.2 4 Norte 18 Oeste 0 -- -- 76
2020-08-08 23:00:00 20.2 14 Oeste 20 Oeste 0 -- -- 81
2020-08-08 22:00:00 20.8 10 Sudoeste 23 Sudoeste 0 -- -- 77
2020-08-08 21:00:00 21.1 13 Sudoeste 17 Sudoeste 0 -- -- 77
2020-08-08 20:00:00 22.1 8 Este 19 Este 0 -- -- 75
2020-08-08 19:00:00 23.4 15 Este 26 Este 0 -- -- 70
2020-08-08 18:00:00 24.9 16 Este 28 Nordeste 0 -- -- 65
2020-08-08 17:00:00 24.6 18 Nordeste 31 Nordeste 0 -- -- 68
2020-08-08 16:00:00 25.8 16 Nordeste 31 Este 0 -- -- 64
2020-08-08 15:00:00 25.4 22 Nordeste 38 Este 0 -- -- 63
2020-08-08 14:00:00 25.3 21 Nordeste 33 Este 0 -- -- 63
2020-08-08 13:00:00 25 22 Nordeste 37 Nordeste 0 -- -- 64
2020-08-08 12:00:00 24.2 22 Nordeste 36 Este 0 -- -- 67
2020-08-08 11:00:00 23.3 20 Nordeste 35 Nordeste 0 -- -- 69
2020-08-08 10:00:00 22.8 17 Nordeste 28 Nordeste 0 -- -- 69
2020-08-08 09:00:00 20.9 11 Nordeste 19 Nordeste 0 -- -- 77
2020-08-08 08:00:00 17.8 6 Noroeste 12 Noroeste 0 -- -- 80
2020-08-08 07:00:00 17.4 8 Norte 15 Norte 0 -- -- 87
2020-08-08 06:00:00 17.4 8 Norte 14 Nordeste 0 -- -- 87
2020-08-08 05:00:00 17.6 8 Norte 16 Noroeste 0 -- -- 85
2020-08-08 04:00:00 17.6 5 Noroeste 11 Noroeste 0 -- -- 86
2020-08-08 03:00:00 18.2 4 Sudoeste 9 Sudoeste 0 -- -- 86
2020-08-08 02:00:00 18.2 3 Oeste 9 Noroeste 0 -- -- 85
2020-08-08 01:00:00 18.5 5 Noroeste 13 Nordeste 0 -- -- 86
2020-08-08 00:00:00 18.9 9 Nordeste 22 Nordeste 0 -- -- 88
2020-08-07 23:00:00 19.2 0 Calma 17 Nordeste 0 -- -- 87
2020-08-07 22:00:00 19.9 11 Nordeste 21 Nordeste 0 -- -- 85
2020-08-07 21:00:00 20.4 14 Nordeste 23 Nordeste 0 -- -- 79
2020-08-07 20:00:00 21.4 15 Nordeste 27 Nordeste 0 -- -- 77
2020-08-07 19:00:00 23.4 14 Nordeste 26 Nordeste 0 -- -- 72
2020-08-07 18:00:00 24.5 17 Este 27 Nordeste 0 -- -- 65
2020-08-07 17:00:00 24.9 18 Este 30 Este 0 -- -- 64
2020-08-07 16:00:00 25.1 18 Nordeste 32 Este 0 -- -- 64
2020-08-07 15:00:00 24.8 18 Nordeste 33 Este 0 -- -- 65
2020-08-07 14:00:00 24.9 19 Nordeste 37 Este 0 -- -- 64
2020-08-07 13:00:00 24.2 20 Nordeste 33 Nordeste 0 -- -- 66
2020-08-07 12:00:00 23.4 18 Este 32 Nordeste 0 -- -- 70
2020-08-07 11:00:00 23.8 15 Este 23 Este 0 -- -- 66
2020-08-07 10:00:00 22.9 12 Nordeste 18 Nordeste 0 -- -- 68
2020-08-07 09:00:00 19.9 9 Nordeste 13 Nordeste 0 -- -- 79
2020-08-07 08:00:00 19.1 6 Nordeste 12 Nordeste 0 -- -- 86
2020-08-07 07:00:00 17.5 8 Noroeste 11 Noroeste 0 -- -- 85
2020-08-07 06:00:00 18 5 Norte 17 Nordeste 0 -- -- 86
2020-08-07 05:00:00 18.3 5 Oeste 9 Oeste 0 -- -- 85
2020-08-07 04:00:00 19.1 4 Oeste 6 Oeste 0 -- -- 86
2020-08-07 03:00:00 19.1 3 Sur 13 Sur 0 -- -- 84
2020-08-07 02:00:00 19.8 6 Sur 8 Sur 0 -- -- 85
2020-08-07 01:00:00 19.7 4 Sudeste 12 Este 0 -- -- 85
2020-08-07 00:00:00 19.1 5 Norte 8 Oeste 0 -- -- 85
2020-08-06 23:00:00 19.5 2 Sudoeste 10 Sudoeste 0 -- -- 84
2020-08-06 22:00:00 20.1 5 Sur 8 Sur 0 -- -- 83
2020-08-06 21:00:00 20.6 4 Sudeste 8 Sudeste 0 -- -- 79
2020-08-06 20:00:00 21.4 7 Sudeste 14 Sudeste 0 -- -- 78
2020-08-06 19:00:00 21.9 8 Este 18 Este 0 -- -- 75
2020-08-06 18:00:00 23.3 9 Este 21 Este 0 -- -- 70
2020-08-06 17:00:00 24.8 13 Este 22 Sudeste 0 -- -- 64
2020-08-06 16:00:00 26.4 10 Nordeste 22 Sudeste 0 -- -- 58
2020-08-06 15:00:00 26.3 13 Sudeste 23 Sur 0 -- -- 60
2020-08-06 14:00:00 26.4 12 Este 19 Este 0 -- -- 59
2020-08-06 13:00:00 26.9 11 Sudeste 20 Este 0 -- -- 58
2020-08-06 12:00:00 25.3 9 Este 17 Sudeste 0 -- -- 62
2020-08-06 11:00:00 23.1 7 Sudeste 17 Sudeste 0 -- -- 72
2020-08-06 10:00:00 21.4 4 Nordeste 10 Sudoeste 0 -- -- 77
2020-08-06 09:00:00 19.9 2 Sur 8 Oeste 0 -- -- 80
2020-08-06 08:00:00 18.7 0 Calma 8 Norte 0 -- -- 89
2020-08-06 07:00:00 18 7 Norte 21 Sudoeste 0 -- -- 90
2020-08-06 06:00:00 19 16 Sudoeste 30 Oeste 0 -- -- 87
2020-08-06 05:00:00 18.8 13 Sudoeste 18 Sudoeste 0 -- -- 89
2020-08-06 04:00:00 18.1 5 Sudoeste 8 Sudoeste 0 -- -- 87
2020-08-06 03:00:00 18.7 5 Norte 13 Nordeste 0 -- -- 85
2020-08-06 02:00:00 19.6 8 Sudoeste 22 Sudoeste 0 -- -- 85
2020-08-06 01:00:00 19.8 10 Sudoeste 15 Sudoeste 0 -- -- 82
2020-08-06 00:00:00 20 5 Noroeste 19 Sur 0 -- -- 78
2020-08-05 23:00:00 20.1 9 Sur 15 Sudoeste 0 -- -- 84
2020-08-05 22:00:00 20.6 8 Sudoeste 12 Sudoeste 0 -- -- 81
2020-08-05 21:00:00 21.4 6 Sudeste 10 Sudeste 0 -- -- 80
2020-08-05 20:00:00 23 5 Sudeste 17 Sudeste 0 -- -- 71
2020-08-05 19:00:00 24.9 10 Sudeste 17 Sudeste 0 -- -- 62
2020-08-05 18:00:00 26.6 8 Sudeste 18 Sudeste 0 -- -- 58
2020-08-05 17:00:00 26.3 9 Sudeste 19 Sudeste 0 -- -- 58
2020-08-05 16:00:00 27.3 10 Este 23 Este 0 -- -- 57
2020-08-05 15:00:00 27.2 11 Nordeste 21 Este 0 -- -- 57
2020-08-05 14:00:00 26.6 9 Este 21 Nordeste 0 -- -- 59
2020-08-05 13:00:00 26.1 13 Este 22 Este 0 -- -- 60
2020-08-05 12:00:00 25.8 9 Nordeste 21 Este 0 -- -- 62
2020-08-05 11:00:00 24.1 13 Este 22 Este 0 -- -- 68
2020-08-05 10:00:00 22.9 14 Nordeste 22 Este 0 -- -- 72
2020-08-05 09:00:00 21 11 Nordeste 19 Nordeste 0 -- -- 79
2020-08-05 08:00:00 18.4 11 Nordeste 19 Nordeste 0 -- -- 88
2020-08-05 07:00:00 17.9 8 Norte 17 Nordeste 0 -- -- 88
2020-08-05 06:00:00 18.4 11 Nordeste 20 Nordeste 0 -- -- 88
2020-08-05 05:00:00 18.4 10 Nordeste 18 Nordeste 0 -- -- 85
2020-08-05 04:00:00 18.3 6 Noroeste 12 Nordeste 0 -- -- 83
2020-08-05 03:00:00 18.8 5 Norte 20 Nordeste 0 -- -- 85
2020-08-05 02:00:00 19.3 8 Nordeste 20 Nordeste 0 -- -- 82
2020-08-05 01:00:00 19.6 11 Nordeste 23 Nordeste 0 -- -- 84
2020-08-05 00:00:00 19.9 10 Nordeste 28 Nordeste 0 -- -- 81
2020-08-04 23:00:00 20.2 5 Norte 10 Norte 0 -- -- 70
2020-08-04 22:00:00 21.1 8 Nordeste 18 Nordeste 0 -- -- 66
2020-08-04 21:00:00 22.2 7 Nordeste 18 Nordeste 0 -- -- 64
2020-08-04 20:00:00 24.3 9 Nordeste 20 Nordeste 0 -- -- 60
2020-08-04 19:00:00 26.2 13 Nordeste 22 Este 0 -- -- 57
2020-08-04 18:00:00 27.2 12 Este 22 Este 0 -- -- 57
2020-08-04 17:00:00 26.7 16 Este 28 Nordeste 0 -- -- 59
2020-08-04 16:00:00 26.8 19 Nordeste 30 Este 0 -- -- 61
2020-08-04 15:00:00 26.6 20 Nordeste 34 Nordeste 0 -- -- 60
2020-08-04 14:00:00 25.5 23 Nordeste 40 Nordeste 0 -- -- 64
2020-08-04 13:00:00 25.1 23 Nordeste 42 Nordeste 0 -- -- 67
2020-08-04 12:00:00 24.6 23 Nordeste 40 Este 0 -- -- 67
2020-08-04 11:00:00 23.4 25 Nordeste 40 Nordeste 0 -- -- 72
2020-08-04 10:00:00 22.1 26 Nordeste 38 Nordeste 0 -- -- 76
2020-08-04 09:00:00 21.1 21 Nordeste 33 Nordeste 0 -- -- 79
2020-08-04 08:00:00 19.2 13 Nordeste 24 Nordeste 0 -- -- 83
2020-08-04 07:00:00 19.1 16 Nordeste 26 Nordeste 0 -- -- 75
2020-08-04 06:00:00 19.1 12 Nordeste 23 Nordeste 0 -- -- 69
2020-08-04 05:00:00 20.2 9 Norte 21 Nordeste 0 -- -- 42
2020-08-04 04:00:00 20.7 9 Norte 18 Nordeste 0 -- -- 35
2020-08-04 03:00:00 20.2 7 Norte 22 Nordeste 0 -- -- 44
2020-08-04 02:00:00 20.5 16 Nordeste 29 Nordeste 0 -- -- 54
2020-08-04 01:00:00 20.6 18 Nordeste 32 Nordeste 0 -- -- 58
2020-08-04 00:00:00 20.3 19 Nordeste 30 Nordeste 0 -- -- 69
2020-08-03 23:00:00 20.9 18 Nordeste 27 Norte 0 -- -- 65
2020-08-03 22:00:00 21.7 16 Nordeste 29 Nordeste 0 -- -- 59
2020-08-03 21:00:00 22.6 15 Nordeste 27 Nordeste 0 -- -- 56
2020-08-03 20:00:00 24.2 19 Nordeste 33 Nordeste 0 -- -- 52
2020-08-03 19:00:00 25.4 18 Nordeste 30 Este 0 -- -- 55
2020-08-03 18:00:00 25.3 18 Nordeste 29 Nordeste 0 -- -- 60
2020-08-03 17:00:00 26.4 18 Nordeste 32 Nordeste 0 -- -- 58
2020-08-03 16:00:00 26.2 21 Este 38 Este 0 -- -- 60
2020-08-03 15:00:00 26.7 21 Nordeste 39 Nordeste 0 -- -- 61
2020-08-03 14:00:00 26 22 Nordeste 36 Este 0 -- -- 64
2020-08-03 13:00:00 26.4 22 Nordeste 35 Nordeste 0 -- -- 61
2020-08-03 12:00:00 26 19 Nordeste 35 Nordeste 0 -- -- 58
2020-08-03 11:00:00 25.6 21 Nordeste 32 Este 0 -- -- 61
2020-08-03 10:00:00 25.1 15 Nordeste 27 Nordeste 0 -- -- 62
2020-08-03 09:00:00 23.8 17 Nordeste 30 Nordeste 0 -- -- 58
2020-08-03 08:00:00 22 17 Nordeste 31 Nordeste 0 -- -- 58
2020-08-03 07:00:00 21.6 18 Nordeste 30 Nordeste 0 -- -- 63
2020-08-03 06:00:00 21.7 17 Nordeste 27 Nordeste 0 -- -- 64
2020-08-03 05:00:00 22.3 16 Nordeste 26 Nordeste 0 -- -- 60
2020-08-03 04:00:00 22.6 13 Nordeste 26 Nordeste 0 -- -- 57
2020-08-03 03:00:00 22.4 16 Nordeste 26 Nordeste 0 -- -- 59
2020-08-03 02:00:00 21.9 11 Nordeste 22 Nordeste 0 -- -- 64
2020-08-03 01:00:00 21.5 9 Nordeste 20 Nordeste 0 -- -- 68
2020-08-03 00:00:00 21.7 9 Nordeste 25 Nordeste 0 -- -- 69
2020-08-02 23:00:00 22.7 13 Nordeste 21 Nordeste 0 -- -- 59
2020-08-02 22:00:00 21.5 12 Nordeste 18 Nordeste 0 -- -- 76
2020-08-02 21:00:00 21.9 12 Nordeste 21 Nordeste 0 -- -- 78
2020-08-02 20:00:00 23.2 13 Nordeste 23 Nordeste 0 -- -- 73
2020-08-02 19:00:00 25 12 Nordeste 26 Este 0 -- -- 68
2020-08-02 18:00:00 25.8 15 Nordeste 28 Este 0 -- -- 66
2020-08-02 17:00:00 26.2 20 Nordeste 33 Nordeste 0 -- -- 63
2020-08-02 16:00:00 27 18 Este 28 Nordeste 0 -- -- 60
2020-08-02 15:00:00 27.4 17 Este 30 Este 0 -- -- 57
2020-08-02 14:00:00 28.2 13 Este 27 Este 0 -- -- 54
2020-08-02 13:00:00 28 14 Este 23 Este 0 -- -- 57
2020-08-02 12:00:00 27 13 Este 19 Este 0 -- -- 60
2020-08-02 11:00:00 27.7 9 Este 17 Nordeste 0 -- -- 54
2020-08-02 10:00:00 26.1 9 Nordeste 14 Nordeste 0 -- -- 57
2020-08-02 09:00:00 24.1 5 Nordeste 13 Nordeste 0 -- -- 47
2020-08-02 08:00:00 22 8 Nordeste 18 Nordeste 0 -- -- 52
2020-08-02 07:00:00 21.5 9 Norte 17 Norte 0 -- -- 60
2020-08-02 06:00:00 18.9 4 Noroeste 12 Norte 0 -- -- 92
2020-08-02 05:00:00 18.9 8 Norte 11 Norte 0 -- -- 91
2020-08-02 04:00:00 19.5 3 Sudoeste 10 Sur 0 -- -- 89
2020-08-02 03:00:00 19.9 5 Sur 7 Sur 0 -- -- 76
2020-08-02 02:00:00 20.4 0 Calma 5 Sudoeste 0 -- -- 65
2020-08-02 01:00:00 21.3 3 Noroeste 8 Nordeste 0 -- -- 62
2020-08-02 00:00:00 21.9 5 Norte 12 Nordeste 0 -- -- 59
2020-08-01 23:00:00 21.8 6 Noroeste 9 Noroeste 0 -- -- 76
2020-08-01 22:00:00 21 3 Noroeste 8 Noroeste 0 -- -- 81
2020-08-01 21:00:00 20.6 5 Noroeste 8 Noroeste 0 -- -- 88
2020-08-01 20:00:00 20.8 5 Este 16 Nordeste 0 -- -- 88
2020-08-01 19:00:00 20.9 12 Nordeste 18 Este 0 -- -- 87
2020-08-01 18:00:00 22.1 12 Nordeste 21 Este 0 -- -- 81
2020-08-01 17:00:00 23.6 12 Este 26 Este 0 -- -- 76
2020-08-01 16:00:00 25.2 18 Nordeste 27 Nordeste 0 -- -- 67
2020-08-01 15:00:00 25.9 15 Este 27 Este 0 -- -- 66
2020-08-01 14:00:00 25 13 Nordeste 31 Nordeste 0 -- -- 70
2020-08-01 13:00:00 23.1 18 Nordeste 28 Este 0 -- -- 76
2020-08-01 12:00:00 22.5 18 Nordeste 27 Nordeste 0 -- -- 78
2020-08-01 11:00:00 22.4 15 Nordeste 23 Este 0 -- -- 79
2020-08-01 10:00:00 22.1 9 Nordeste 19 Nordeste 0 -- -- 80
2020-08-01 09:00:00 19.3 14 Nordeste 19 Nordeste 0 -- -- 93
2020-08-01 08:00:00 18.6 9 Nordeste 14 Norte 0 -- -- 94
2020-08-01 07:00:00 18.5 5 Nordeste 12 Este 0 -- -- 94
2020-08-01 06:00:00 18.4 10 Nordeste 17 Nordeste 0 -- -- 94
2020-08-01 05:00:00 18.5 9 Nordeste 15 Nordeste 0 -- -- 93
2020-08-01 04:00:00 18.8 10 Nordeste 16 Nordeste 0 -- -- 91
2020-08-01 03:00:00 19 11 Nordeste 21 Nordeste 0 -- -- 91
2020-08-01 02:00:00 19.1 10 Nordeste 24 Este 0 -- -- 92
2020-08-01 01:00:00 19.2 13 Nordeste 23 Nordeste 0 -- -- 91
2020-08-01 00:00:00 19.3 14 Nordeste 23 Nordeste 0 -- -- 91
2020-07-31 23:00:00 19.2 16 Nordeste 26 Nordeste 0 -- -- 90
2020-07-31 22:00:00 19.5 14 Nordeste 27 Nordeste 0 -- -- 89
2020-07-31 21:00:00 19.7 13 Nordeste 26 Nordeste 0 -- -- 87
2020-07-31 20:00:00 20.6 14 Nordeste 27 Nordeste 0 -- -- 83
2020-07-31 19:00:00 21.6 14 Nordeste 26 Nordeste 0 -- -- 79
2020-07-31 18:00:00 23.3 15 Nordeste 31 Nordeste 0 -- -- 70
2020-07-31 17:00:00 23.6 18 Nordeste 36 Este 0 -- -- 68
2020-07-31 16:00:00 24.1 21 Nordeste 36 Este 0 -- -- 66
2020-07-31 15:00:00 24.5 20 Nordeste 33 Este 0 -- -- 65
2020-07-31 14:00:00 24.7 16 Nordeste 31 Nordeste 0 -- -- 63
2020-07-31 13:00:00 23.4 21 Este 33 Este 0 -- -- 68
2020-07-31 12:00:00 23.3 16 Nordeste 34 Nordeste 0 -- -- 68
2020-07-31 11:00:00 22.7 17 Este 27 Este 0 -- -- 70
2020-07-31 10:00:00 21.5 13 Nordeste 18 Nordeste 0 -- -- 73
2020-07-31 09:00:00 19.6 6 Nordeste 22 Nordeste 0 -- -- 81
2020-07-31 08:00:00 18.1 14 Nordeste 26 Nordeste 0 -- -- 86
2020-07-31 07:00:00 18 10 Nordeste 15 Norte 0 -- -- 87
2020-07-31 06:00:00 17.3 9 Norte 13 Norte 0 -- -- 87
2020-07-31 05:00:00 17.6 8 Nordeste 17 Nordeste 0 -- -- 86
2020-07-31 04:00:00 18.1 10 Nordeste 31 Nordeste 0 -- -- 87
2020-07-31 03:00:00 18.4 19 Nordeste 34 Nordeste 0 -- -- 85
2020-07-31 02:00:00 18.4 18 Nordeste 30 Nordeste 0 -- -- 87
2020-07-31 01:00:00 18.4 17 Nordeste 28 Nordeste 0 -- -- 87
2020-07-31 00:00:00 18.1 12 Nordeste 23 Nordeste 0 -- -- 88
2020-07-30 23:00:00 18.6 17 Nordeste 27 Nordeste 0 -- -- 86
2020-07-30 22:00:00 18.9 17 Nordeste 28 Nordeste 0 -- -- 87
2020-07-30 21:00:00 19.5 19 Nordeste 35 Nordeste 0 -- -- 83
2020-07-30 20:00:00 20.5 21 Nordeste 44 Nordeste 0 -- -- 80
2020-07-30 19:00:00 22 19 Nordeste 37 Nordeste 0 -- -- 70
2020-07-30 18:00:00 22.9 23 Nordeste 37 Este 0 -- -- 66
2020-07-30 17:00:00 23.7 22 Nordeste 41 Nordeste 0 -- -- 66
2020-07-30 16:00:00 24.6 24 Nordeste 38 Nordeste 0 -- -- 59
2020-07-30 15:00:00 24.6 23 Nordeste 36 Nordeste 0 -- -- 61
2020-07-30 14:00:00 24.8 20 Nordeste 36 Este 0 -- -- 59
2020-07-30 13:00:00 23.9 22 Nordeste 36 Nordeste 0 -- -- 62
2020-07-30 12:00:00 23.6 21 Nordeste 33 Este 0 -- -- 63
2020-07-30 11:00:00 22 21 Nordeste 33 Nordeste 0 -- -- 69
2020-07-30 10:00:00 20.9 22 Nordeste 38 Nordeste -- -- -- 71
2020-07-30 09:00:00 19.2 20 Nordeste 30 Nordeste 0 -- -- 79
2020-07-30 08:00:00 17.4 9 Norte 16 Norte 0 -- -- 83
2020-07-30 07:00:00 16.8 9 Norte 21 Norte 0 -- -- 84
2020-07-30 06:00:00 16.5 10 Norte 15 Nordeste 0 -- -- 84
2020-07-30 05:00:00 16.9 9 Norte 21 Nordeste 0 -- -- 86
2020-07-30 04:00:00 17.5 14 Nordeste 26 Nordeste 0 -- -- 85
2020-07-30 03:00:00 17.7 11 Nordeste 28 Norte 0 -- -- 85
2020-07-30 02:00:00 17.9 15 Nordeste 29 Nordeste 0 -- -- 82
2020-07-30 01:00:00 17.9 11 Nordeste 19 Nordeste 0 -- -- 82
2020-07-30 00:00:00 18.3 10 Nordeste 31 Nordeste 0 -- -- 79
2020-07-29 23:00:00 18.3 7 Norte 23 Nordeste 0 -- -- 80
2020-07-29 22:00:00 18.7 11 Nordeste 23 Nordeste 0 -- -- 81
2020-07-29 21:00:00 19.5 14 Nordeste 34 Nordeste 0 -- -- 82
2020-07-29 20:00:00 20.9 21 Nordeste 34 Nordeste 0 -- -- 77
2020-07-29 19:00:00 22.4 23 Nordeste 42 Nordeste 0 -- -- 71
2020-07-29 18:00:00 23.4 22 Nordeste 41 Nordeste 0 -- -- 67
2020-07-29 17:00:00 24.3 25 Nordeste 40 Este 0 -- -- 63
2020-07-29 16:00:00 24.9 25 Nordeste 42 Nordeste 0 -- -- 61
2020-07-29 15:00:00 24.7 27 Nordeste 48 Este 0 -- -- 64
2020-07-29 14:00:00 24.6 30 Nordeste 46 Nordeste 0 -- -- 62
2020-07-29 13:00:00 24.3 29 Nordeste 49 Este 0 -- -- 64
2020-07-29 12:00:00 23.5 30 Nordeste 48 Nordeste 0 -- -- 68
2020-07-29 11:00:00 22.9 30 Nordeste 46 Nordeste 0 -- -- 65
2020-07-29 10:00:00 22 26 Nordeste 43 Nordeste 0 -- -- 68
2020-07-29 09:00:00 20.6 22 Nordeste 41 Nordeste 0 -- -- 73
2020-07-29 08:00:00 18.6 20 Nordeste 32 Nordeste 0 -- -- 80
2020-07-29 07:00:00 18 19 Nordeste 37 Nordeste 0 -- -- 81
2020-07-29 06:00:00 18.1 17 Nordeste 33 Nordeste 0 -- -- 83
2020-07-29 05:00:00 18.1 14 Nordeste 31 Nordeste 0 -- -- 86
2020-07-29 04:00:00 18.3 17 Nordeste 34 Nordeste 0 -- -- 86
2020-07-29 03:00:00 18.3 18 Nordeste 33 Nordeste 0 -- -- 86
2020-07-29 02:00:00 18.4 21 Nordeste 39 Nordeste 0 -- -- 88
2020-07-29 01:00:00 18.8 21 Nordeste 35 Nordeste 0 -- -- 86
2020-07-29 00:00:00 18.7 17 Nordeste 35 Nordeste 0 -- -- 84
2020-07-28 23:00:00 18.9 23 Nordeste 34 Nordeste 0 -- -- 86
2020-07-28 22:00:00 19.2 20 Nordeste 31 Nordeste 0 -- -- 83
2020-07-28 21:00:00 19.6 17 Nordeste 32 Nordeste 0 -- -- 85
2020-07-28 20:00:00 20.6 24 Nordeste 39 Nordeste 0 -- -- 80
2020-07-28 19:00:00 22.1 25 Nordeste 38 Nordeste 0 -- -- 75
2020-07-28 18:00:00 23.3 26 Nordeste 41 Nordeste 0 -- -- 70
2020-07-28 17:00:00 24.4 27 Nordeste 38 Este 0 -- -- 68
2020-07-28 16:00:00 24.8 24 Nordeste 39 Nordeste 0 -- -- 68
2020-07-28 15:00:00 25.1 27 Nordeste 42 Este 0 -- -- 64
2020-07-28 14:00:00 24.9 25 Nordeste 39 Este 0 -- -- 66
2020-07-28 13:00:00 24.9 24 Nordeste 41 Nordeste 0 -- -- 65
2020-07-28 12:00:00 23.6 24 Nordeste 40 Nordeste 0 -- -- 71
2020-07-28 11:00:00 22.5 24 Nordeste 36 Nordeste 0 -- -- 75
2020-07-28 10:00:00 21.3 21 Nordeste 31 Nordeste 0 -- -- 80
2020-07-28 09:00:00 19.6 18 Nordeste 27 Nordeste 0 -- -- 86
2020-07-28 08:00:00 18.1 15 Nordeste 27 Nordeste 0 -- -- 93
2020-07-28 07:00:00 18 14 Nordeste 27 Nordeste 0 -- -- 93
2020-07-28 06:00:00 18 15 Nordeste 26 Nordeste 0 -- -- 93
2020-07-28 05:00:00 18.1 16 Nordeste 27 Nordeste 0 -- -- 92
2020-07-28 04:00:00 18.3 17 Nordeste 31 Nordeste 0 -- -- 92
2020-07-28 03:00:00 18.4 20 Nordeste 39 Nordeste 0 -- -- 92
2020-07-28 02:00:00 18.8 21 Nordeste 33 Nordeste 0 -- -- 92
2020-07-28 01:00:00 18.9 21 Nordeste 36 Nordeste 0 -- -- 90
2020-07-28 00:00:00 19.2 17 Nordeste 27 Nordeste 0 -- -- 88
2020-07-27 23:00:00 19.4 20 Nordeste 29 Nordeste 0 -- -- 85
2020-07-27 22:00:00 19.9 17 Nordeste 23 Nordeste 0 -- -- 82
2020-07-27 21:00:00 20.5 17 Nordeste 23 Nordeste 0 -- -- 79
2020-07-27 20:00:00 22.1 14 Nordeste 27 Nordeste 0 -- -- 72
2020-07-27 19:00:00 23.4 18 Nordeste 27 Nordeste 0 -- -- 69
2020-07-27 18:00:00 24.9 17 Nordeste 32 Este 0 -- -- 63
2020-07-27 17:00:00 25.3 20 Nordeste 34 Nordeste 0 -- -- 61
2020-07-27 16:00:00 26 21 Nordeste 31 Este 0 -- -- 60
2020-07-27 15:00:00 26.4 20 Este 33 Este 0 -- -- 59
2020-07-27 14:00:00 24.9 22 Nordeste 42 Nordeste 0 -- -- 64
2020-07-27 13:00:00 23.5 28 Nordeste 45 Nordeste 0 -- -- 69
2020-07-27 12:00:00 23.4 24 Nordeste 42 Nordeste 0 -- -- 68
2020-07-27 11:00:00 22.5 26 Nordeste 38 Nordeste 0 -- -- 73
2020-07-27 08:00:00 -- -- -- -- -- -- -- -- --
2020-07-27 07:00:00 17.3 16 Nordeste 30 Nordeste 0 -- -- 91
2020-07-27 06:00:00 17.2 15 Nordeste 29 Nordeste 0 -- -- 90
2020-07-27 05:00:00 17.6 18 Nordeste 33 Nordeste 0 -- -- 90
2020-07-27 04:00:00 17.4 12 Nordeste 27 Nordeste 0 -- -- 89
2020-07-27 03:00:00 17.7 12 Nordeste 29 Nordeste 0 -- -- 91
2020-07-27 02:00:00 17.9 14 Nordeste 32 Nordeste 0 -- -- 89
2020-07-27 01:00:00 18.2 14 Nordeste 28 Nordeste 0 -- -- 89
2020-07-27 00:00:00 18.3 17 Nordeste 27 Nordeste 0 -- -- 89
2020-07-26 23:00:00 18.4 11 Nordeste 22 Nordeste 0 -- -- 86
2020-07-26 22:00:00 18.9 9 Nordeste 22 Nordeste 0 -- -- 84
2020-07-26 21:00:00 19.5 15 Nordeste 36 Nordeste 0 -- -- 81
2020-07-26 20:00:00 21.1 17 Nordeste 32 Este 0 -- -- 76
2020-07-26 19:00:00 22.5 20 Nordeste 39 Este 0 -- -- 70
2020-07-26 18:00:00 23.1 24 Nordeste 37 Nordeste 0 -- -- 69
2020-07-26 17:00:00 23.8 26 Nordeste 40 Nordeste 0 -- -- 67
2020-07-26 16:00:00 24.8 27 Nordeste 43 Nordeste 0 -- -- 62
2020-07-26 15:00:00 24.9 23 Nordeste 42 Nordeste 0 -- -- 62
2020-07-26 14:00:00 25.1 22 Nordeste 40 Este 0 -- -- 61
2020-07-26 13:00:00 24.4 24 Nordeste 42 Nordeste 0 -- -- 63
2020-07-26 12:00:00 23.9 26 Nordeste 41 Nordeste 0 -- -- 65
2020-07-26 11:00:00 22.8 27 Nordeste 39 Nordeste 0 -- -- 70
2020-07-26 10:00:00 22.5 19 Nordeste 34 Nordeste 0 -- -- 73
2020-07-26 09:00:00 21.7 18 Nordeste 26 Nordeste 0 -- -- 69
2020-07-26 08:00:00 18.8 6 Norte 23 Nordeste 0 -- -- 76
2020-07-26 07:00:00 17.9 13 Nordeste 22 Nordeste 0 -- -- 83
2020-07-26 06:00:00 17.7 4 Norte 24 Nordeste 0 -- -- 83
2020-07-26 05:00:00 18.1 13 Nordeste 26 Nordeste 0 -- -- 87
2020-07-26 04:00:00 18 8 Nordeste 18 Nordeste 0 -- -- 87
2020-07-26 03:00:00 18.4 14 Nordeste 32 Nordeste -- -- -- 88
2020-07-26 02:00:00 18.6 19 Nordeste 35 Nordeste 0 -- -- 85
2020-07-26 01:00:00 18.9 21 Nordeste 32 Nordeste 0 -- -- 82
2020-07-26 00:00:00 18.9 10 Nordeste 24 Nordeste 0 -- -- 81
2020-07-25 23:00:00 19.6 15 Nordeste 21 Este 0 -- -- 70
2020-07-25 22:00:00 20.4 15 Nordeste 23 Nordeste 0 -- -- 64
2020-07-25 21:00:00 21.5 11 Nordeste 27 Nordeste 0 -- -- 58
2020-07-25 20:00:00 24.8 13 Nordeste 25 Nordeste 0 -- -- 45
2020-07-25 19:00:00 25.9 14 Este 34 Nordeste 0 -- -- 48
2020-07-25 18:00:00 26.1 19 Este 31 Nordeste 0 -- -- 54
2020-07-25 17:00:00 27.4 16 Nordeste 28 Este 0 -- -- 46
2020-07-25 16:00:00 27.2 19 Nordeste 27 Este 0 -- -- 51
2020-07-25 15:00:00 27 19 Este 29 Este 0 -- -- 54
2020-07-25 14:00:00 26.2 20 Este 29 Nordeste 0 -- -- 57
2020-07-25 13:00:00 25.6 19 Este 32 Este 0 -- -- 59
2020-07-25 12:00:00 25.6 19 Nordeste 30 Este 0 -- -- 60
2020-07-25 11:00:00 24.4 16 Este 29 Este 0 -- -- 66
2020-07-25 10:00:00 23.6 14 Nordeste 28 Nordeste 0 -- -- 60
2020-07-25 09:00:00 21.4 13 Nordeste 19 Nordeste 0 -- -- 67
2020-07-25 08:00:00 18.2 6 Norte 15 Norte 0 -- -- 76
2020-07-25 07:00:00 17.5 5 Noroeste 14 Noroeste 0 -- -- 76
2020-07-25 06:00:00 17.3 7 Noroeste 12 Noroeste 0 -- -- 75
2020-07-25 05:00:00 17.6 6 Norte 19 Nordeste 0 -- -- 78
2020-07-25 04:00:00 17.7 2 Oeste 10 Noroeste 0 -- -- 80
2020-07-25 03:00:00 17.6 2 Noroeste 8 Noroeste 0 -- -- 83
2020-07-25 02:00:00 17.6 3 Oeste 10 Noroeste 0 -- -- 84
2020-07-25 01:00:00 17.7 5 Norte 10 Este 0 -- -- 87
2020-07-25 00:00:00 18.2 4 Norte 8 Norte 0 -- -- 84
2020-07-24 23:00:00 18.6 0 Calma 12 Nordeste 0 -- -- 85
2020-07-24 22:00:00 19.3 6 Norte 10 Norte 0 -- -- 84
2020-07-24 21:00:00 20.7 5 Este 11 Este 0 -- -- 79
2020-07-24 20:00:00 22.6 9 Este 16 Este 0 -- -- 70
2020-07-24 19:00:00 24.7 10 Este 20 Nordeste 0 -- -- 63
2020-07-24 18:00:00 25.7 11 Nordeste 21 Nordeste 0 -- -- 60
2020-07-24 17:00:00 25.7 15 Este 29 Nordeste 0 -- -- 61
2020-07-24 16:00:00 26 21 Este 32 Este 0 -- -- 59
2020-07-24 15:00:00 25.4 21 Nordeste 31 Este 0 -- -- 61
2020-07-24 14:00:00 25.2 22 Nordeste 38 Nordeste 0 -- -- 63
2020-07-24 13:00:00 24.7 22 Nordeste 33 Nordeste 0 -- -- 63
2020-07-24 12:00:00 23.9 23 Nordeste 34 Nordeste 0 -- -- 66
2020-07-24 11:00:00 23.3 22 Nordeste 32 Este 0 -- -- 67
2020-07-24 10:00:00 22.4 18 Nordeste 27 Nordeste 0 -- -- 71
2020-07-24 09:00:00 20.7 18 Nordeste 27 Nordeste 0 -- -- 72
2020-07-24 08:00:00 18.2 12 Nordeste 22 Nordeste 0 -- -- 82
2020-07-24 07:00:00 17.5 10 Nordeste 20 Nordeste 0 -- -- 83
2020-07-24 06:00:00 17.7 10 Nordeste 21 Nordeste 0 -- -- 84
2020-07-24 05:00:00 17.9 10 Nordeste 21 Nordeste 0 -- -- 82
2020-07-24 04:00:00 17.8 8 Nordeste 13 Norte 0 -- -- 86
2020-07-24 03:00:00 18 7 Norte 15 Este 0 -- -- 85
2020-07-24 02:00:00 18 9 Nordeste 14 Nordeste 0 -- -- 86
2020-07-24 01:00:00 18.3 8 Nordeste 13 Nordeste 0 -- -- 88
2020-07-24 00:00:00 18.6 6 Nordeste 12 Nordeste 0 -- -- 87
2020-07-23 23:00:00 19.1 9 Nordeste 14 Nordeste 0 -- -- 83
2020-07-23 22:00:00 19.5 12 Nordeste 18 Nordeste 0 -- -- 84
2020-07-23 21:00:00 20.3 14 Nordeste 21 Nordeste 0 -- -- 80
2020-07-23 20:00:00 22 12 Nordeste 23 Este 0 -- -- 75
2020-07-23 19:00:00 23.6 15 Nordeste 25 Este 0 -- -- 68
2020-07-23 18:00:00 24.9 19 Este 30 Este 0 -- -- 64
2020-07-23 17:00:00 25.9 18 Nordeste 31 Este 0 -- -- 61
2020-07-23 16:00:00 26.2 21 Nordeste 32 Nordeste 0 -- -- 60
2020-07-23 15:00:00 26.8 19 Nordeste 35 Este 0 -- -- 58
2020-07-23 14:00:00 25.8 21 Nordeste 36 Este 0 -- -- 61
2020-07-23 13:00:00 25.7 19 Nordeste 31 Este 0 -- -- 63
2020-07-23 12:00:00 25.1 20 Nordeste 32 Este 0 -- -- 65
2020-07-23 11:00:00 23.8 20 Nordeste 33 Nordeste 0 -- -- 69
2020-07-23 10:00:00 23.1 16 Nordeste 23 Nordeste 0 -- -- 70
2020-07-23 09:00:00 21 11 Nordeste 20 Nordeste 0 -- -- 79
2020-07-23 08:00:00 18.3 8 Norte 14 Nordeste 0 -- -- 81
2020-07-23 07:00:00 18.2 6 Norte 13 Nordeste 0 -- -- 81
2020-07-23 06:00:00 18.1 7 Nordeste 14 Nordeste 0 -- -- 87
2020-07-23 05:00:00 18 8 Norte 14 Norte 0 -- -- 87
2020-07-23 04:00:00 17.9 6 Norte 17 Nordeste 0 -- -- 91
2020-07-23 03:00:00 18 8 Nordeste 13 Norte 0 -- -- 92
2020-07-23 02:00:00 18.1 6 Norte 15 Nordeste 0 -- -- 91
2020-07-23 01:00:00 18.4 13 Nordeste 27 Nordeste 0 -- -- 91
2020-07-23 00:00:00 18.7 19 Nordeste 31 Nordeste 0 -- -- 91
2020-07-22 23:00:00 18.9 20 Nordeste 30 Nordeste 0 -- -- 90
2020-07-22 22:00:00 19.2 18 Nordeste 31 Nordeste 0 -- -- 87
2020-07-22 21:00:00 19.7 21 Nordeste 38 Nordeste 0 -- -- 83
2020-07-22 20:00:00 21.2 21 Nordeste 32 Nordeste 0 -- -- 78
2020-07-22 19:00:00 22.5 22 Nordeste 37 Nordeste 0 -- -- 72
2020-07-22 18:00:00 23.2 23 Nordeste 40 Nordeste 0 -- -- 70
2020-07-22 17:00:00 24.2 24 Nordeste 51 Este 0 -- -- 67
2020-07-22 16:00:00 24.7 26 Nordeste 44 Nordeste 0 -- -- 65
2020-07-22 15:00:00 24.4 28 Nordeste 43 Nordeste 0 -- -- 64
2020-07-22 14:00:00 24.4 26 Nordeste 46 Nordeste 0 -- -- 65
2020-07-22 13:00:00 24.4 25 Nordeste 42 Nordeste 0 -- -- 65
2020-07-22 12:00:00 23.7 26 Nordeste 48 Nordeste 0 -- -- 67
2020-07-22 11:00:00 23 27 Nordeste 40 Nordeste 0 -- -- 69
2020-07-22 10:00:00 22 21 Nordeste 29 Nordeste 0 -- -- 72
2020-07-22 09:00:00 20.5 15 Nordeste 25 Nordeste 0 -- -- 77
2020-07-22 08:00:00 17.8 7 Nordeste 18 Nordeste 0 -- -- 83
2020-07-22 07:00:00 17.5 12 Nordeste 19 Nordeste 0 -- -- 87
2020-07-22 06:00:00 17.8 12 Nordeste 31 Nordeste 0 -- -- 85
2020-07-22 05:00:00 17.7 12 Nordeste 20 Nordeste 0 -- -- 85
2020-07-22 04:00:00 18 13 Nordeste 25 Nordeste 0 -- -- 88
2020-07-22 03:00:00 18 12 Nordeste 23 Nordeste 0 -- -- 85
2020-07-22 02:00:00 18.3 16 Nordeste 27 Nordeste 0 -- -- 83
2020-07-22 01:00:00 18.2 10 Norte 25 Nordeste 0 -- -- 85
2020-07-22 00:00:00 18.4 12 Nordeste 29 Nordeste 0 -- -- 86
2020-07-21 23:00:00 18.7 13 Nordeste 24 Nordeste 0 -- -- 85
2020-07-21 22:00:00 19 18 Nordeste 29 Nordeste 0 -- -- 82
2020-07-21 21:00:00 19.6 12 Nordeste 32 Nordeste 0 -- -- 79
2020-07-21 20:00:00 20.7 20 Nordeste 31 Este 0 -- -- 76
2020-07-21 19:00:00 21.9 22 Nordeste 40 Nordeste 0 -- -- 71
2020-07-21 18:00:00 23.2 21 Nordeste 44 Este 0 -- -- 66
2020-07-21 17:00:00 24.1 22 Nordeste 35 Este 0 -- -- 62
2020-07-21 16:00:00 24.7 23 Nordeste 37 Este 0 -- -- 61
2020-07-21 15:00:00 24.9 25 Nordeste 37 Este 0 -- -- 61
2020-07-21 14:00:00 24.4 26 Nordeste 40 Este 0 -- -- 61
2020-07-21 13:00:00 23.9 27 Nordeste 44 Este 0 -- -- 61
2020-07-21 12:00:00 22.9 29 Nordeste 41 Este 0 -- -- 63
2020-07-21 11:00:00 22.5 26 Nordeste 45 Nordeste 0 -- -- 67
2020-07-21 10:00:00 21.3 23 Nordeste 41 Nordeste 0 -- -- 69
2020-07-21 09:00:00 20.1 20 Nordeste 36 Nordeste 0 -- -- 73
2020-07-21 08:00:00 18.1 15 Nordeste 36 Nordeste 0 -- -- 82
2020-07-21 07:00:00 17.7 17 Nordeste 36 Nordeste 0 -- -- 84
2020-07-21 06:00:00 17.9 21 Nordeste 45 Nordeste 0 -- -- 82
2020-07-21 05:00:00 18.1 19 Nordeste 35 Nordeste 0 -- -- 81
2020-07-21 04:00:00 18.5 17 Nordeste 30 Nordeste 0 -- -- 80
2020-07-21 03:00:00 18.8 12 Nordeste 36 Nordeste 0 -- -- 76
2020-07-21 02:00:00 19.4 21 Nordeste 37 Nordeste 0 -- -- 73
2020-07-21 01:00:00 19.3 18 Nordeste 29 Nordeste 0 -- -- 74
2020-07-21 00:00:00 19.2 13 Nordeste 22 Nordeste 0 -- -- 78
2020-07-20 23:00:00 19.6 12 Nordeste 21 Nordeste 0 -- -- 76
2020-07-20 22:00:00 19.5 15 Nordeste 30 Nordeste 0 -- -- 79
2020-07-20 21:00:00 20.1 18 Nordeste 27 Nordeste 0 -- -- 78
2020-07-20 20:00:00 21.9 14 Nordeste 25 Nordeste 0 -- -- 74
2020-07-20 19:00:00 23.5 19 Nordeste 31 Nordeste 0 -- -- 67
2020-07-20 18:00:00 23.8 23 Nordeste 35 Este 0 -- -- 68
2020-07-20 17:00:00 24.4 24 Nordeste 37 Este 0 -- -- 65
2020-07-20 16:00:00 24.5 26 Nordeste 39 Nordeste 0 -- -- 66
2020-07-20 15:00:00 25.3 20 Nordeste 36 Este 0 -- -- 64
2020-07-20 14:00:00 25 26 Nordeste 41 Nordeste 0 -- -- 62
2020-07-20 13:00:00 25.7 23 Nordeste 37 Este 0 -- -- 60
2020-07-20 12:00:00 25.8 16 Este 37 Este 0 -- -- 62
2020-07-20 11:00:00 25.6 13 Este 20 Este 0 -- -- 61
2020-07-20 10:00:00 24.1 9 Este 14 Este 0 -- -- 66
2020-07-20 09:00:00 21.8 6 Este 10 Sudeste 0 -- -- 75
2020-07-20 08:00:00 20.1 0 Calma 6 Este 0 -- -- 78
2020-07-20 07:00:00 20.4 2 Nordeste 8 Nordeste 0 -- -- 68
2020-07-20 06:00:00 20.9 3 Nordeste 8 Oeste 0 -- -- 62
2020-07-20 05:00:00 21.8 3 Este 6 Noroeste 0 -- -- 56
2020-07-20 04:00:00 22 3 Nordeste 11 Noroeste 0 -- -- 55
2020-07-20 03:00:00 22.6 9 Norte 14 Norte 0 -- -- 52
2020-07-20 02:00:00 23.5 7 Norte 14 Nordeste 0 -- -- 48
2020-07-20 01:00:00 24.1 4 Nordeste 16 Nordeste 0 -- -- 47
2020-07-20 00:00:00 24.9 12 Nordeste 28 Nordeste 0 -- -- 44
2020-07-19 23:00:00 25.6 15 Nordeste 39 Nordeste 0 -- -- 42
2020-07-19 22:00:00 26.5 16 Nordeste 28 Norte 0 -- -- 39
2020-07-19 21:00:00 26.8 15 Nordeste 26 Nordeste 0 -- -- 41
2020-07-19 20:00:00 28.7 13 Nordeste 25 Nordeste 0 -- -- 39
2020-07-19 19:00:00 29.8 19 Nordeste 32 Nordeste 0 -- -- 35
2020-07-19 18:00:00 31.2 20 Nordeste 40 Nordeste 0 -- -- 32
2020-07-19 17:00:00 31.8 25 Nordeste 45 Nordeste 0 -- -- 29
2020-07-19 16:00:00 32.4 26 Nordeste 42 Nordeste 0 -- -- 29
2020-07-19 15:00:00 32.5 24 Nordeste 39 Nordeste 0 -- -- 29
2020-07-19 14:00:00 32.7 19 Nordeste 39 Nordeste 0 -- -- 29
2020-07-19 13:00:00 32 22 Nordeste 34 Nordeste 0 -- -- 29
2020-07-19 12:00:00 30.9 21 Nordeste 33 Nordeste 0 -- -- 29
2020-07-19 11:00:00 29.8 21 Nordeste 41 Nordeste 0 -- -- 31
2020-07-19 10:00:00 28.7 21 Nordeste 30 Nordeste 0 -- -- 35
2020-07-19 09:00:00 26.2 15 Nordeste 24 Nordeste 0 -- -- 39
2020-07-19 08:00:00 23.1 9 Nordeste 19 Nordeste 0 -- -- 46
2020-07-19 07:00:00 23.5 14 Nordeste 21 Este 0 -- -- 45
2020-07-19 06:00:00 24.4 7 Nordeste 26 Nordeste 0 -- -- 44
2020-07-19 05:00:00 25.9 13 Nordeste 25 Norte 0 -- -- 36
2020-07-19 04:00:00 26.8 15 Nordeste 30 Nordeste 0 -- -- 35
2020-07-19 03:00:00 26.5 14 Nordeste 32 Nordeste 0 -- -- 39
2020-07-19 02:00:00 26.3 11 Nordeste 21 Nordeste 0 -- -- 35
2020-07-19 01:00:00 25 8 Norte 14 Nordeste 0 -- -- 48
2020-07-19 00:00:00 25.6 6 Nordeste 17 Nordeste 0 -- -- 43
2020-07-18 23:00:00 25.7 6 Nordeste 15 Nordeste 0 -- -- 52
2020-07-18 22:00:00 26.9 6 Norte 11 Nordeste 0 -- -- 39
2020-07-18 21:00:00 28.1 4 Nordeste 23 Sudoeste 0 -- -- 36
2020-07-18 20:00:00 29.6 7 Este 26 Nordeste 0 -- -- 32
2020-07-18 19:00:00 30.2 12 Nordeste 25 Nordeste 0 -- -- 31
2020-07-18 18:00:00 30.8 17 Nordeste 28 Nordeste 0 -- -- 27
2020-07-18 17:00:00 30.5 18 Nordeste 27 Nordeste 0 -- -- 30
2020-07-18 16:00:00 32.2 17 Este 25 Este 0 -- -- 28
2020-07-18 15:00:00 31.6 15 Nordeste 23 Nordeste 0 -- -- 32
2020-07-18 14:00:00 32.1 12 Nordeste 22 Este 0 -- -- 33
2020-07-18 13:00:00 32.1 10 Sudeste 18 Nordeste 0 -- -- 30
2020-07-18 12:00:00 31 14 Nordeste 21 Este 0 -- -- 32
2020-07-18 11:00:00 28.6 10 Este 17 Este 0 -- -- 41
2020-07-18 10:00:00 26.5 8 Nordeste 16 Nordeste 0 -- -- 47
2020-07-18 09:00:00 24.9 5 Nordeste 16 Nordeste 0 -- -- 50
2020-07-18 08:00:00 23.2 5 Norte 9 Este 0 -- -- 39
2020-07-18 07:00:00 25.4 2 Nordeste 12 Noroeste 0 -- -- 19
2020-07-18 06:00:00 25.9 4 Nordeste 13 Norte 0 -- -- 22
2020-07-18 05:00:00 25.5 6 Norte 10 Nordeste 0 -- -- 23
2020-07-18 04:00:00 25.2 4 Norte 11 Noroeste 0 -- -- 27
2020-07-18 03:00:00 24.3 4 Norte 9 Norte 0 -- -- 34
2020-07-18 02:00:00 26.2 4 Nordeste 17 Nordeste 0 -- -- 30
2020-07-18 01:00:00 25.6 4 Norte 10 Noroeste 0 -- -- 40
2020-07-18 00:00:00 24 6 Noroeste 10 Noroeste 0 -- -- 47
2020-07-17 23:00:00 25.9 5 Norte 9 Noroeste 0 -- -- 42
2020-07-17 22:00:00 26.1 5 Noroeste 9 Noroeste 0 -- -- 43
2020-07-17 21:00:00 25.3 3 Norte 8 Noroeste 0 -- -- 57
2020-07-17 20:00:00 25.8 0 Calma 14 Sudeste 0 -- -- 65
2020-07-17 19:00:00 28.2 6 Sudeste 11 Este 0 -- -- 58
2020-07-17 18:00:00 29.3 8 Este 14 Nordeste 0 -- -- 45
2020-07-17 17:00:00 26.8 7 Nordeste 17 Este 0 -- -- 61
2020-07-17 16:00:00 28.2 9 Este 17 Sudeste 0 -- -- 57
2020-07-17 15:00:00 30.2 12 Sudeste 23 Sudeste 0 -- -- 53
2020-07-17 14:00:00 30.3 8 Sudeste 17 Sudeste 0 -- -- 50
2020-07-17 13:00:00 28.6 6 Nordeste 21 Sudeste 0 -- -- 56
2020-07-17 12:00:00 28.3 8 Este 18 Sudeste 0 -- -- 57
2020-07-17 11:00:00 27.8 9 Sudeste 14 Sudeste 0 -- -- 52
2020-07-17 10:00:00 24.1 3 Norte 10 Nordeste 0 -- -- 63
2020-07-17 09:00:00 21.6 8 Norte 11 Norte 0 -- -- 75
2020-07-17 08:00:00 22.4 5 Nordeste 10 Norte 0 -- -- 55
2020-07-17 07:00:00 19.8 5 Norte 9 Noroeste 0 -- -- 59
2020-07-17 06:00:00 17.7 4 Norte 9 Noroeste 0 -- -- 93
2020-07-17 05:00:00 18.3 0 Calma 5 Oeste 0 -- -- 96
2020-07-17 04:00:00 18.4 2 Nordeste 9 Noroeste 0 -- -- 96
2020-07-17 03:00:00 18.5 3 Nordeste 6 Sudeste 0 -- -- 94
2020-07-17 02:00:00 19.3 2 Sur 9 Noroeste 0 -- -- 90
2020-07-17 01:00:00 18.7 0 Calma 5 Norte 0 -- -- 92
2020-07-17 00:00:00 19 3 Este 6 Nordeste 0 -- -- 92
2020-07-16 23:00:00 19.5 3 Nordeste 6 Este 0 -- -- 90
2020-07-16 22:00:00 20.1 3 Sudeste 6 Sudeste 0 -- -- 86
2020-07-16 21:00:00 21.8 3 Sur 10 Sudeste 0 -- -- 78
2020-07-16 20:00:00 23.3 3 Norte 10 Nordeste 0 -- -- 72
2020-07-16 19:00:00 24.7 6 Nordeste 15 Este 0 -- -- 68
2020-07-16 18:00:00 25 9 Nordeste 21 Este 0 -- -- 67
2020-07-16 17:00:00 25.3 13 Este 22 Nordeste 0 -- -- 65
2020-07-16 16:00:00 26 14 Este 23 Este 0 -- -- 62
2020-07-16 15:00:00 25.9 15 Nordeste 23 Este 0 -- -- 62
2020-07-16 14:00:00 25.4 13 Nordeste 23 Este 0 -- -- 64
2020-07-16 13:00:00 25.4 12 Este 21 Este 0 -- -- 64
2020-07-16 12:00:00 24.8 11 Este 18 Este 0 -- -- 66
2020-07-16 11:00:00 24 9 Este 16 Este 0 -- -- 70
2020-07-16 10:00:00 21.1 3 Sur 12 Nordeste 0 -- -- 80
2020-07-16 09:00:00 19.2 8 Nordeste 13 Nordeste 0 -- -- 88
2020-07-16 08:00:00 17.9 3 Norte 10 Nordeste 0 -- -- 93
2020-07-16 07:00:00 17.9 8 Nordeste 16 Nordeste 0 -- -- 92
2020-07-16 06:00:00 18 9 Nordeste 15 Nordeste 0 -- -- 94
2020-07-16 05:00:00 17.6 5 Nordeste 19 Nordeste 0 -- -- 93
2020-07-16 04:00:00 18 13 Nordeste 25 Nordeste 0 -- -- 93
2020-07-16 03:00:00 17.7 8 Nordeste 13 Nordeste 0 -- -- 93
2020-07-16 02:00:00 17.7 5 Nordeste 13 Norte 0 -- -- 92
2020-07-16 01:00:00 18.1 6 Norte 12 Nordeste 0 -- -- 91
2020-07-16 00:00:00 18.4 10 Nordeste 19 Nordeste 0 -- -- 90
2020-07-15 23:00:00 18.7 10 Nordeste 21 Nordeste 0 -- -- 88
2020-07-15 22:00:00 19 16 Nordeste 24 Nordeste 0 -- -- 87
2020-07-15 21:00:00 19.5 17 Nordeste 30 Nordeste 0 -- -- 86
2020-07-15 20:00:00 21.3 18 Nordeste 30 Nordeste 0 -- -- 78
2020-07-15 19:00:00 22.5 18 Nordeste 36 Este 0 -- -- 74
2020-07-15 18:00:00 23.6 23 Nordeste 34 Nordeste 0 -- -- 71
2020-07-15 17:00:00 25.2 20 Nordeste 34 Nordeste 0 -- -- 65
2020-07-15 16:00:00 25.6 24 Nordeste 37 Nordeste 0 -- -- 64
2020-07-15 15:00:00 26.1 24 Nordeste 36 Nordeste 0 -- -- 62
2020-07-15 14:00:00 26 23 Nordeste 35 Nordeste 0 -- -- 61
2020-07-15 13:00:00 25.5 23 Nordeste 33 Este 0 -- -- 61
2020-07-15 12:00:00 25.2 20 Nordeste 29 Nordeste 0 -- -- 60
2020-07-15 11:00:00 24.5 17 Nordeste 29 Este 0 -- -- 64
2020-07-15 10:00:00 23.9 15 Nordeste 23 Nordeste 0 -- -- 60
2020-07-15 09:00:00 22.8 9 Este 15 Nordeste 0 -- -- 61
2020-07-15 08:00:00 19.9 6 Nordeste 11 Noroeste 0 -- -- 63
2020-07-15 07:00:00 18.7 2 Este 9 Noroeste 0 -- -- 70
2020-07-15 06:00:00 18.7 6 Sudoeste 9 Sudoeste 0 -- -- 73
2020-07-15 05:00:00 18.9 3 Sudoeste 10 Noroeste 0 -- -- 75
2020-07-15 04:00:00 19.2 5 Norte 14 Norte 0 -- -- 68
2020-07-15 03:00:00 19.4 4 Nordeste 14 Sudoeste 0 -- -- 74
2020-07-15 02:00:00 19.5 8 Sudoeste 12 Sudoeste 0 -- -- 77
2020-07-15 01:00:00 19.9 4 Sudoeste 7 Nordeste 0 -- -- 71
2020-07-15 00:00:00 20.9 3 Este 11 Norte 0 -- -- 68
2020-07-14 23:00:00 22.5 7 Este 23 Nordeste 0 -- -- 65
2020-07-14 22:00:00 24.3 13 Nordeste 26 Nordeste 0 -- -- 47
2020-07-14 21:00:00 24.9 16 Nordeste 26 Nordeste 0 -- -- 46
2020-07-14 20:00:00 26.8 14 Nordeste 24 Nordeste 0 -- -- 46
2020-07-14 19:00:00 28.4 9 Este 27 Este 0 -- -- 46
2020-07-14 18:00:00 29.3 19 Este 36 Este 0 -- -- 43
2020-07-14 17:00:00 29.4 12 Este 24 Este 0 -- -- 46
2020-07-14 16:00:00 29.4 11 Sudeste 18 Este 0 -- -- 48
2020-07-14 15:00:00 27.7 10 Sudeste 25 Sudeste 0 -- -- 54
2020-07-14 14:00:00 25.9 13 Sur 26 Sur 0 -- -- 61
2020-07-14 13:00:00 26 15 Sur 24 Sur 0 -- -- 57
2020-07-14 12:00:00 25.8 13 Sur 21 Este 0 -- -- 57
2020-07-14 11:00:00 25.9 8 Este 25 Este 0 -- -- 51
2020-07-14 10:00:00 22.3 9 Sur 14 Sur 0 -- -- 65
2020-07-14 09:00:00 19.9 7 Sudoeste 24 Sudoeste 0 -- -- 71
2020-07-14 08:00:00 17.6 13 Oeste 18 Sudoeste 0 -- -- 81
2020-07-14 07:00:00 16.5 9 Noroeste 18 Norte 0 -- -- 83
2020-07-14 06:00:00 17.3 16 Nordeste 24 Nordeste 0 -- -- 84
2020-07-14 05:00:00 17.5 14 Sudoeste 21 Sudoeste 0 -- -- 91
2020-07-14 04:00:00 17.2 5 Sudoeste 15 Sudoeste 0 -- -- 84
2020-07-14 03:00:00 18.2 0 Calma 17 Oeste 0 -- -- 74
2020-07-14 02:00:00 17.6 7 Oeste 12 Oeste 0 -- -- 83
2020-07-14 01:00:00 17.8 3 Noroeste 8 Oeste 0 -- -- 80
2020-07-14 00:00:00 18.2 11 Sudoeste 23 Sudoeste 0 -- -- 89